sensor_id;sensor_type;location;lat;lon;timestamp;pressure;altitude;pressure_sealevel;temperature;humidity
27984;BME280;15317;50.360;8.726;2022-07-23T00:03:49;99452.13;;;19.59;95.99
27984;BME280;15317;50.360;8.726;2022-07-23T00:07:52;99438.16;;;19.54;96.11
27984;BME280;15317;50.360;8.726;2022-07-23T00:11:54;99433.09;;;19.51;96.23
27984;BME280;15317;50.360;8.726;2022-07-23T00:15:56;99455.16;;;19.51;96.24
27984;BME280;15317;50.360;8.726;2022-07-23T00:19:59;99458.53;;;19.40;98.64
27984;BME280;15317;50.360;8.726;2022-07-23T00:24:02;99447.50;;;19.40;99.87
27984;BME280;15317;50.360;8.726;2022-07-23T00:28:04;99453.47;;;19.37;100.00
27984;BME280;15317;50.360;8.726;2022-07-23T00:32:06;99454.56;;;19.29;100.00
27984;BME280;15317;50.360;8.726;2022-07-23T00:36:10;99458.63;;;19.13;100.00
27984;BME280;15317;50.360;8.726;2022-07-23T00:40:12;99456.13;;;18.92;100.00
27984;BME280;15317;50.360;8.726;2022-07-23T00:44:18;99448.72;;;18.86;100.00
27984;BME280;15317;50.360;8.726;2022-07-23T00:48:21;99462.69;;;18.78;100.00
27984;BME280;15317;50.360;8.726;2022-07-23T00:52:24;99459.09;;;18.71;100.00
27984;BME280;15317;50.360;8.726;2022-07-23T00:56:27;99454.03;;;18.68;100.00
27984;BME280;15317;50.360;8.726;2022-07-23T01:00:29;99448.94;;;18.51;100.00
27984;BME280;15317;50.360;8.726;2022-07-23T01:04:31;99445.53;;;18.49;100.00
27984;BME280;15317;50.360;8.726;2022-07-23T01:08:34;99437.72;;;18.46;100.00
27984;BME280;15317;50.360;8.726;2022-07-23T01:12:37;99435.19;;;18.38;100.00
27984;BME280;15317;50.360;8.726;2022-07-23T01:16:39;99433.28;;;18.32;100.00
27984;BME280;15317;50.360;8.726;2022-07-23T01:20:41;99421.44;;;18.25;100.00
27984;BME280;15317;50.360;8.726;2022-07-23T01:24:44;99422.69;;;18.29;100.00
27984;BME280;15317;50.360;8.726;2022-07-23T01:28:48;99419.75;;;18.17;100.00
27984;BME280;15317;50.360;8.726;2022-07-23T01:32:50;99418.03;;;18.10;100.00
27984;BME280;15317;50.360;8.726;2022-07-23T01:36:52;99426.53;;;18.15;100.00
27984;BME280;15317;50.360;8.726;2022-07-23T01:40:55;99417.19;;;18.16;100.00
27984;BME280;15317;50.360;8.726;2022-07-23T01:44:57;99418.03;;;18.16;100.00
27984;BME280;15317;50.360;8.726;2022-07-23T01:48:59;99429.47;;;18.20;100.00
27984;BME280;15317;50.360;8.726;2022-07-23T01:53:01;99417.84;;;18.18;100.00
27984;BME280;15317;50.360;8.726;2022-07-23T01:57:05;99419.72;;;18.11;100.00
27984;BME280;15317;50.360;8.726;2022-07-23T02:01:07;99433.69;;;18.16;100.00
27984;BME280;15317;50.360;8.726;2022-07-23T02:05:09;99429.69;;;18.12;100.00
27984;BME280;15317;50.360;8.726;2022-07-23T02:09:11;99421.44;;;18.12;100.00
27984;BME280;15317;50.360;8.726;2022-07-23T02:13:15;99432.81;;;18.09;100.00
27984;BME280;15317;50.360;8.726;2022-07-23T02:17:17;99438.31;;;18.09;100.00
27984;BME280;15317;50.360;8.726;2022-07-23T02:21:19;99421.84;;;18.09;100.00
27984;BME280;15317;50.360;8.726;2022-07-23T02:25:21;99412.53;;;18.03;100.00
27984;BME280;15317;50.360;8.726;2022-07-23T02:29:24;99435.16;;;17.99;100.00
27984;BME280;15317;50.360;8.726;2022-07-23T02:33:26;99430.72;;;17.98;100.00
27984;BME280;15317;50.360;8.726;2022-07-23T02:37:28;99453.13;;;18.01;100.00
27984;BME280;15317;50.360;8.726;2022-07-23T02:41:30;99451.63;;;17.86;100.00
27984;BME280;15317;50.360;8.726;2022-07-23T02:45:34;99454.34;;;17.79;100.00
27984;BME280;15317;50.360;8.726;2022-07-23T02:49:36;99453.03;;;17.68;100.00
27984;BME280;15317;50.360;8.726;2022-07-23T02:53:38;99468.66;;;17.68;100.00
27984;BME280;15317;50.360;8.726;2022-07-23T02:57:40;99460.56;;;17.53;100.00
27984;BME280;15317;50.360;8.726;2022-07-23T03:01:43;99451.66;;;17.45;100.00
27984;BME280;15317;50.360;8.726;2022-07-23T03:05:46;99461.75;;;17.37;100.00
27984;BME280;15317;50.360;8.726;2022-07-23T03:09:48;99481.19;;;17.36;100.00
27984;BME280;15317;50.360;8.726;2022-07-23T03:13:50;99484.75;;;17.30;100.00
27984;BME280;15317;50.360;8.726;2022-07-23T03:17:54;99483.72;;;17.37;100.00
27984;BME280;15317;50.360;8.726;2022-07-23T03:21:56;99491.28;;;17.29;100.00
27984;BME280;15317;50.360;8.726;2022-07-23T03:25:58;99486.59;;;17.23;100.00
27984;BME280;15317;50.360;8.726;2022-07-23T03:30:00;99486.22;;;17.26;100.00
27984;BME280;15317;50.360;8.726;2022-07-23T03:34:03;99493.75;;;17.17;100.00
27984;BME280;15317;50.360;8.726;2022-07-23T03:38:05;99491.22;;;17.16;100.00
27984;BME280;15317;50.360;8.726;2022-07-23T03:42:08;99495.00;;;17.15;100.00
27984;BME280;15317;50.360;8.726;2022-07-23T03:46:10;99493.28;;;17.14;100.00
27984;BME280;15317;50.360;8.726;2022-07-23T03:50:13;99502.00;;;17.17;100.00
27984;BME280;15317;50.360;8.726;2022-07-23T03:54:15;99509.81;;;17.20;100.00
27984;BME280;15317;50.360;8.726;2022-07-23T03:58:17;99510.31;;;17.30;100.00
27984;BME280;15317;50.360;8.726;2022-07-23T04:02:19;99516.09;;;17.14;100.00
27984;BME280;15317;50.360;8.726;2022-07-23T04:06:23;99516.13;;;17.21;100.00
27984;BME280;15317;50.360;8.726;2022-07-23T04:10:25;99506.81;;;17.15;100.00
27984;BME280;15317;50.360;8.726;2022-07-23T04:14:27;99491.66;;;17.19;100.00
27984;BME280;15317;50.360;8.726;2022-07-23T04:18:29;99503.47;;;17.20;100.00
27984;BME280;15317;50.360;8.726;2022-07-23T04:22:32;99503.69;;;17.18;100.00
27984;BME280;15317;50.360;8.726;2022-07-23T04:26:34;99500.72;;;17.20;100.00
27984;BME280;15317;50.360;8.726;2022-07-23T04:30:36;99517.84;;;17.22;100.00
27984;BME280;15317;50.360;8.726;2022-07-23T04:34:38;99519.50;;;17.16;100.00
27984;BME280;15317;50.360;8.726;2022-07-23T04:38:42;99518.72;;;17.29;100.00
27984;BME280;15317;50.360;8.726;2022-07-23T04:42:44;99526.16;;;17.35;100.00
27984;BME280;15317;50.360;8.726;2022-07-23T04:46:46;99520.06;;;17.40;100.00
27984;BME280;15317;50.360;8.726;2022-07-23T04:50:48;99526.84;;;17.44;100.00
27984;BME280;15317;50.360;8.726;2022-07-23T04:54:51;99525.34;;;17.41;100.00
27984;BME280;15317;50.360;8.726;2022-07-23T04:58:53;99527.28;;;17.47;100.00
27984;BME280;15317;50.360;8.726;2022-07-23T05:02:55;99531.16;;;17.59;100.00
27984;BME280;15317;50.360;8.726;2022-07-23T05:06:58;99532.06;;;17.66;100.00
27984;BME280;15317;50.360;8.726;2022-07-23T05:11:02;99535.50;;;17.88;100.00
27984;BME280;15317;50.360;8.726;2022-07-23T05:15:04;99554.25;;;18.32;100.00
27984;BME280;15317;50.360;8.726;2022-07-23T05:19:06;99553.81;;;18.29;100.00
27984;BME280;15317;50.360;8.726;2022-07-23T05:23:08;99558.03;;;18.18;100.00
27984;BME280;15317;50.360;8.726;2022-07-23T05:27:12;99550.63;;;18.12;100.00
27984;BME280;15317;50.360;8.726;2022-07-23T05:31:14;99564.09;;;18.68;100.00
27984;BME280;15317;50.360;8.726;2022-07-23T05:35:16;99575.75;;;19.16;95.10
27984;BME280;15317;50.360;8.726;2022-07-23T05:39:18;99583.56;;;19.19;94.50
27984;BME280;15317;50.360;8.726;2022-07-23T05:43:21;99582.72;;;19.45;93.15
27984;BME280;15317;50.360;8.726;2022-07-23T05:47:23;99576.88;;;19.92;89.80
27984;BME280;15317;50.360;8.726;2022-07-23T05:51:26;99570.78;;;19.77;88.29
27984;BME280;15317;50.360;8.726;2022-07-23T05:55:28;99568.72;;;19.53;90.55
27984;BME280;15317;50.360;8.726;2022-07-23T05:59:33;99566.84;;;19.20;91.46
27984;BME280;15317;50.360;8.726;2022-07-23T06:03:35;99560.69;;;19.05;93.94
27984;BME280;15317;50.360;8.726;2022-07-23T06:07:37;99573.84;;;19.03;94.43
27984;BME280;15317;50.360;8.726;2022-07-23T06:11:39;99582.31;;;18.95;94.53
27984;BME280;15317;50.360;8.726;2022-07-23T06:15:43;99593.50;;;19.40;91.13
27984;BME280;15317;50.360;8.726;2022-07-23T06:19:45;99593.91;;;19.69;85.96
27984;BME280;15317;50.360;8.726;2022-07-23T06:23:47;99592.34;;;19.87;86.13
27984;BME280;15317;50.360;8.726;2022-07-23T06:27:49;99601.28;;;19.82;84.48
27984;BME280;15317;50.360;8.726;2022-07-23T06:31:52;99600.00;;;19.91;83.19
27984;BME280;15317;50.360;8.726;2022-07-23T06:35:54;99600.34;;;20.01;84.15
27984;BME280;15317;50.360;8.726;2022-07-23T06:39:56;99607.16;;;19.99;81.95
27984;BME280;15317;50.360;8.726;2022-07-23T06:43:58;99620.06;;;20.11;82.53
27984;BME280;15317;50.360;8.726;2022-07-23T06:48:02;99624.41;;;20.39;79.91
27984;BME280;15317;50.360;8.726;2022-07-23T06:52:04;99629.94;;;20.39;79.20
27984;BME280;15317;50.360;8.726;2022-07-23T06:56:07;99633.44;;;20.90;79.65
27984;BME280;15317;50.360;8.726;2022-07-23T07:00:10;99621.97;;;20.94;77.86
27984;BME280;15317;50.360;8.726;2022-07-23T07:04:13;99613.34;;;21.08;75.98
27984;BME280;15317;50.360;8.726;2022-07-23T07:08:15;99614.88;;;21.29;75.11
27984;BME280;15317;50.360;8.726;2022-07-23T07:12:18;99625.72;;;21.55;72.03
27984;BME280;15317;50.360;8.726;2022-07-23T07:16:20;99617.56;;;21.60;71.62
27984;BME280;15317;50.360;8.726;2022-07-23T07:20:23;99625.94;;;21.72;72.07
27984;BME280;15317;50.360;8.726;2022-07-23T07:24:25;99642.78;;;21.89;69.88
27984;BME280;15317;50.360;8.726;2022-07-23T07:28:27;99643.38;;;22.16;67.64
27984;BME280;15317;50.360;8.726;2022-07-23T07:32:29;99659.19;;;22.27;67.63
27984;BME280;15317;50.360;8.726;2022-07-23T07:36:34;99659.88;;;22.40;68.44
27984;BME280;15317;50.360;8.726;2022-07-23T07:40:37;99662.84;;;22.39;67.98
27984;BME280;15317;50.360;8.726;2022-07-23T07:44:39;99662.00;;;22.38;68.00
27984;BME280;15317;50.360;8.726;2022-07-23T07:48:42;99672.00;;;22.58;64.55
27984;BME280;15317;50.360;8.726;2022-07-23T07:52:45;99673.41;;;22.49;66.14
27984;BME280;15317;50.360;8.726;2022-07-23T07:56:47;99679.03;;;22.90;66.36
27984;BME280;15317;50.360;8.726;2022-07-23T08:00:49;99681.75;;;23.08;63.87
27984;BME280;15317;50.360;8.726;2022-07-23T08:04:52;99681.06;;;23.24;63.71
27984;BME280;15317;50.360;8.726;2022-07-23T08:08:55;99680.34;;;23.41;63.51
27984;BME280;15317;50.360;8.726;2022-07-23T08:12:58;99694.00;;;23.42;63.08
27984;BME280;15317;50.360;8.726;2022-07-23T08:17:01;99699.31;;;23.44;61.75
27984;BME280;15317;50.360;8.726;2022-07-23T08:21:03;99700.53;;;23.48;61.83
27984;BME280;15317;50.360;8.726;2022-07-23T08:25:08;99700.81;;;23.58;59.88
27984;BME280;15317;50.360;8.726;2022-07-23T08:29:10;99697.44;;;23.79;62.16
27984;BME280;15317;50.360;8.726;2022-07-23T08:33:13;99702.63;;;24.11;59.62
27984;BME280;15317;50.360;8.726;2022-07-23T08:37:16;99708.41;;;23.97;59.48
27984;BME280;15317;50.360;8.726;2022-07-23T08:41:19;99703.13;;;23.84;59.65
27984;BME280;15317;50.360;8.726;2022-07-23T08:45:23;99704.09;;;23.78;59.86
27984;BME280;15317;50.360;8.726;2022-07-23T08:49:26;99709.13;;;24.05;59.86
27984;BME280;15317;50.360;8.726;2022-07-23T08:53:30;99706.63;;;24.15;58.42
27984;BME280;15317;50.360;8.726;2022-07-23T08:57:34;99703.97;;;24.20;57.90
27984;BME280;15317;50.360;8.726;2022-07-23T09:01:44;99719.72;;;24.54;57.39
27984;BME280;15317;50.360;8.726;2022-07-23T09:05:47;99708.38;;;24.44;55.71
27984;BME280;15317;50.360;8.726;2022-07-23T09:10:04;99713.38;;;24.82;55.75
27984;BME280;15317;50.360;8.726;2022-07-23T09:14:08;99716.72;;;24.84;55.09
27984;BME280;15317;50.360;8.726;2022-07-23T09:18:15;99725.00;;;24.67;57.02
27984;BME280;15317;50.360;8.726;2022-07-23T09:22:20;99719.50;;;24.84;54.10
27984;BME280;15317;50.360;8.726;2022-07-23T09:26:28;99714.38;;;24.64;53.69
27984;BME280;15317;50.360;8.726;2022-07-23T09:30:33;99717.97;;;25.33;51.65
27984;BME280;15317;50.360;8.726;2022-07-23T09:34:36;99734.06;;;25.60;47.57
27984;BME280;15317;50.360;8.726;2022-07-23T09:38:48;99725.06;;;25.41;50.32
27984;BME280;15317;50.360;8.726;2022-07-23T09:42:55;99717.38;;;25.60;49.10
27984;BME280;15317;50.360;8.726;2022-07-23T09:46:59;99724.28;;;25.74;47.37
27984;BME280;15317;50.360;8.726;2022-07-23T09:51:03;99725.13;;;25.91;45.57
27984;BME280;15317;50.360;8.726;2022-07-23T09:55:06;99724.28;;;25.90;45.07
27984;BME280;15317;50.360;8.726;2022-07-23T09:59:08;99711.59;;;26.16;46.25
27984;BME280;15317;50.360;8.726;2022-07-23T10:03:13;99713.97;;;26.24;44.25
27984;BME280;15317;50.360;8.726;2022-07-23T10:07:17;99716.81;;;26.68;43.12
27984;BME280;15317;50.360;8.726;2022-07-23T10:11:23;99719.50;;;26.85;43.76
27984;BME280;15317;50.360;8.726;2022-07-23T10:15:25;99715.63;;;26.64;44.02
27984;BME280;15317;50.360;8.726;2022-07-23T10:19:29;99709.84;;;26.49;44.66
27984;BME280;15317;50.360;8.726;2022-07-23T10:23:35;99702.84;;;26.24;43.56
27984;BME280;15317;50.360;8.726;2022-07-23T10:27:47;99718.16;;;26.44;44.12
27984;BME280;15317;50.360;8.726;2022-07-23T10:31:58;99704.84;;;26.29;43.77
27984;BME280;15317;50.360;8.726;2022-07-23T10:36:08;99707.16;;;26.54;44.38
27984;BME280;15317;50.360;8.726;2022-07-23T10:40:13;99716.47;;;26.86;44.63
27984;BME280;15317;50.360;8.726;2022-07-23T10:44:19;99701.38;;;27.04;42.73
27984;BME280;15317;50.360;8.726;2022-07-23T10:48:24;99708.00;;;26.98;43.74
27984;BME280;15317;50.360;8.726;2022-07-23T10:52:28;99698.56;;;26.82;43.85
27984;BME280;15317;50.360;8.726;2022-07-23T10:56:50;99701.09;;;27.05;43.62
27984;BME280;15317;50.360;8.726;2022-07-23T11:00:52;99686.13;;;27.11;42.78
27984;BME280;15317;50.360;8.726;2022-07-23T11:04:59;99689.88;;;26.95;42.59
27984;BME280;15317;50.360;8.726;2022-07-23T11:09:24;99684.00;;;27.24;42.95
27984;BME280;15317;50.360;8.726;2022-07-23T11:13:38;99687.50;;;27.36;42.22
27984;BME280;15317;50.360;8.726;2022-07-23T11:17:58;99676.41;;;27.46;42.74
27984;BME280;15317;50.360;8.726;2022-07-23T11:22:01;99679.66;;;27.65;41.47
27984;BME280;15317;50.360;8.726;2022-07-23T11:26:06;99674.47;;;27.78;41.32
27984;BME280;15317;50.360;8.726;2022-07-23T11:30:09;99674.22;;;28.17;41.13
27984;BME280;15317;50.360;8.726;2022-07-23T11:34:41;99669.09;;;28.09;40.62
27984;BME280;15317;50.360;8.726;2022-07-23T11:38:44;99669.06;;;28.04;40.88
27984;BME280;15317;50.360;8.726;2022-07-23T11:42:54;99673.22;;;28.38;40.49
27984;BME280;15317;50.360;8.726;2022-07-23T11:46:57;99668.75;;;28.42;41.40
27984;BME280;15317;50.360;8.726;2022-07-23T11:50:59;99669.41;;;28.69;40.24
27984;BME280;15317;50.360;8.726;2022-07-23T11:55:05;99667.16;;;28.61;41.12
27984;BME280;15317;50.360;8.726;2022-07-23T11:59:09;99673.31;;;28.58;40.45
27984;BME280;15317;50.360;8.726;2022-07-23T12:03:12;99669.84;;;28.36;39.88
27984;BME280;15317;50.360;8.726;2022-07-23T12:07:31;99669.88;;;27.62;41.76
27984;BME280;15317;50.360;8.726;2022-07-23T12:11:34;99653.44;;;28.08;42.26
27984;BME280;15317;50.360;8.726;2022-07-23T12:15:38;99653.25;;;28.19;43.28
27984;BME280;15317;50.360;8.726;2022-07-23T12:19:41;99661.53;;;28.51;42.36
27984;BME280;15317;50.360;8.726;2022-07-23T12:23:48;99657.06;;;28.55;42.17
27984;BME280;15317;50.360;8.726;2022-07-23T12:27:59;99657.19;;;28.76;42.91
27984;BME280;15317;50.360;8.726;2022-07-23T12:32:18;99659.34;;;28.63;41.77
27984;BME280;15317;50.360;8.726;2022-07-23T12:36:36;99653.59;;;28.33;40.45
27984;BME280;15317;50.360;8.726;2022-07-23T12:40:43;99651.41;;;28.40;41.35
27984;BME280;15317;50.360;8.726;2022-07-23T12:45:04;99652.69;;;28.75;40.95
27984;BME280;15317;50.360;8.726;2022-07-23T12:49:08;99657.75;;;28.83;40.89
27984;BME280;15317;50.360;8.726;2022-07-23T12:53:13;99662.91;;;28.49;40.43
27984;BME280;15317;50.360;8.726;2022-07-23T12:57:16;99657.31;;;28.44;40.97
27984;BME280;15317;50.360;8.726;2022-07-23T13:01:22;99646.19;;;28.59;39.95
27984;BME280;15317;50.360;8.726;2022-07-23T13:05:26;99647.69;;;28.82;40.02
27984;BME280;15317;50.360;8.726;2022-07-23T13:09:30;99653.94;;;29.19;38.63
27984;BME280;15317;50.360;8.726;2022-07-23T13:13:35;99660.59;;;28.98;38.68
27984;BME280;15317;50.360;8.726;2022-07-23T13:17:37;99656.56;;;28.68;39.35
27984;BME280;15317;50.360;8.726;2022-07-23T13:21:40;99665.03;;;28.84;38.87
27984;BME280;15317;50.360;8.726;2022-07-23T13:25:45;99659.69;;;28.77;39.68
27984;BME280;15317;50.360;8.726;2022-07-23T13:29:47;99670.63;;;28.94;40.30
27984;BME280;15317;50.360;8.726;2022-07-23T13:33:49;99660.63;;;29.18;40.14
27984;BME280;15317;50.360;8.726;2022-07-23T13:37:53;99653.28;;;28.87;40.86
27984;BME280;15317;50.360;8.726;2022-07-23T13:41:56;99652.47;;;28.96;41.00
27984;BME280;15317;50.360;8.726;2022-07-23T13:45:58;99657.81;;;28.93;40.05
27984;BME280;15317;50.360;8.726;2022-07-23T13:50:00;99648.84;;;29.01;39.80
27984;BME280;15317;50.360;8.726;2022-07-23T13:54:04;99640.47;;;29.11;38.55
27984;BME280;15317;50.360;8.726;2022-07-23T13:58:07;99642.72;;;29.09;38.22
27984;BME280;15317;50.360;8.726;2022-07-23T14:02:09;99646.69;;;29.49;39.48
27984;BME280;15317;50.360;8.726;2022-07-23T14:06:11;99645.00;;;29.63;37.29
27984;BME280;15317;50.360;8.726;2022-07-23T14:10:16;99651.19;;;29.60;37.19
27984;BME280;15317;50.360;8.726;2022-07-23T14:14:18;99647.75;;;29.12;38.64
27984;BME280;15317;50.360;8.726;2022-07-23T14:18:21;99652.75;;;28.90;38.33
27984;BME280;15317;50.360;8.726;2022-07-23T14:22:23;99652.69;;;28.75;39.15
27984;BME280;15317;50.360;8.726;2022-07-23T14:26:26;99654.03;;;28.62;39.64
27984;BME280;15317;50.360;8.726;2022-07-23T14:30:29;99649.91;;;28.75;37.88
27984;BME280;15317;50.360;8.726;2022-07-23T14:34:31;99649.59;;;28.71;38.31
27984;BME280;15317;50.360;8.726;2022-07-23T14:38:33;99652.19;;;28.93;37.47
27984;BME280;15317;50.360;8.726;2022-07-23T14:42:37;99661.72;;;29.02;37.29
27984;BME280;15317;50.360;8.726;2022-07-23T14:46:39;99652.22;;;29.03;37.08
27984;BME280;15317;50.360;8.726;2022-07-23T14:50:41;99657.84;;;29.13;34.97
27984;BME280;15317;50.360;8.726;2022-07-23T14:54:43;99654.47;;;29.11;35.82
27984;BME280;15317;50.360;8.726;2022-07-23T14:58:47;99654.97;;;28.83;36.26
27984;BME280;15317;50.360;8.726;2022-07-23T15:02:49;99656.91;;;28.82;37.19
27984;BME280;15317;50.360;8.726;2022-07-23T15:06:51;99653.84;;;28.79;36.17
27984;BME280;15317;50.360;8.726;2022-07-23T15:10:53;99641.03;;;28.93;36.68
27984;BME280;15317;50.360;8.726;2022-07-23T15:14:57;99644.75;;;29.34;35.53
27984;BME280;15317;50.360;8.726;2022-07-23T15:18:59;99645.56;;;29.60;36.12
27984;BME280;15317;50.360;8.726;2022-07-23T15:23:02;99653.41;;;29.88;35.21
27984;BME280;15317;50.360;8.726;2022-07-23T15:27:04;99646.41;;;29.60;33.26
27984;BME280;15317;50.360;8.726;2022-07-23T15:31:08;99652.81;;;29.20;34.21
27984;BME280;15317;50.360;8.726;2022-07-23T15:35:10;99655.53;;;28.85;35.77
27984;BME280;15317;50.360;8.726;2022-07-23T15:39:12;99642.34;;;28.80;35.05
27984;BME280;15317;50.360;8.726;2022-07-23T15:43:14;99649.72;;;29.12;34.37
27984;BME280;15317;50.360;8.726;2022-07-23T15:47:18;99647.16;;;28.90;34.89
27984;BME280;15317;50.360;8.726;2022-07-23T15:51:21;99652.19;;;28.93;34.56
27984;BME280;15317;50.360;8.726;2022-07-23T15:55:23;99645.38;;;28.63;34.72
27984;BME280;15317;50.360;8.726;2022-07-23T15:59:26;99646.41;;;28.47;35.39
27984;BME280;15317;50.360;8.726;2022-07-23T16:03:29;99640.22;;;28.35;35.49
27984;BME280;15317;50.360;8.726;2022-07-23T16:07:31;99637.97;;;28.32;36.04
27984;BME280;15317;50.360;8.726;2022-07-23T16:11:37;99637.69;;;28.34;35.69
27984;BME280;15317;50.360;8.726;2022-07-23T16:15:40;99636.06;;;28.38;36.14
27984;BME280;15317;50.360;8.726;2022-07-23T16:19:43;99641.88;;;28.31;36.66
27984;BME280;15317;50.360;8.726;2022-07-23T16:23:46;99626.34;;;28.03;36.83
27984;BME280;15317;50.360;8.726;2022-07-23T16:27:49;99623.81;;;28.02;36.58
27984;BME280;15317;50.360;8.726;2022-07-23T16:31:51;99625.00;;;28.11;36.49
27984;BME280;15317;50.360;8.726;2022-07-23T16:35:54;99634.38;;;27.95;36.17
27984;BME280;15317;50.360;8.726;2022-07-23T16:39:56;99627.78;;;28.11;36.10
27984;BME280;15317;50.360;8.726;2022-07-23T16:43:59;99628.81;;;28.00;35.51
27984;BME280;15317;50.360;8.726;2022-07-23T16:48:01;99636.91;;;27.96;35.63
27984;BME280;15317;50.360;8.726;2022-07-23T16:52:04;99635.19;;;27.90;36.53
27984;BME280;15317;50.360;8.726;2022-07-23T16:56:07;99633.44;;;27.79;36.46
27984;BME280;15317;50.360;8.726;2022-07-23T17:00:11;99641.88;;;27.89;36.93
27984;BME280;15317;50.360;8.726;2022-07-23T17:04:13;99639.28;;;27.77;37.52
27984;BME280;15317;50.360;8.726;2022-07-23T17:08:17;99640.56;;;27.60;37.84
27984;BME280;15317;50.360;8.726;2022-07-23T17:12:19;99639.19;;;27.62;37.36
27984;BME280;15317;50.360;8.726;2022-07-23T17:16:21;99644.78;;;27.62;37.62
27984;BME280;15317;50.360;8.726;2022-07-23T17:20:23;99646.81;;;27.45;37.71
27984;BME280;15317;50.360;8.726;2022-07-23T17:24:26;99650.09;;;27.37;37.90
27984;BME280;15317;50.360;8.726;2022-07-23T17:28:28;99651.69;;;27.28;38.43
27984;BME280;15317;50.360;8.726;2022-07-23T17:32:31;99648.88;;;27.23;37.77
27984;BME280;15317;50.360;8.726;2022-07-23T17:36:33;99651.56;;;27.12;38.21
27984;BME280;15317;50.360;8.726;2022-07-23T17:40:37;99658.13;;;27.01;38.67
27984;BME280;15317;50.360;8.726;2022-07-23T17:44:39;99661.31;;;26.88;39.45
27984;BME280;15317;50.360;8.726;2022-07-23T17:48:41;99664.47;;;26.75;39.94
27984;BME280;15317;50.360;8.726;2022-07-23T17:52:45;99658.31;;;26.68;38.78
27984;BME280;15317;50.360;8.726;2022-07-23T17:56:48;99665.09;;;26.55;39.55
27984;BME280;15317;50.360;8.726;2022-07-23T18:00:51;99670.50;;;26.40;39.54
27984;BME280;15317;50.360;8.726;2022-07-23T18:04:53;99673.97;;;26.30;39.56
27984;BME280;15317;50.360;8.726;2022-07-23T18:08:55;99682.59;;;26.12;41.13
27984;BME280;15317;50.360;8.726;2022-07-23T18:12:58;99681.94;;;26.05;40.10
27984;BME280;15317;50.360;8.726;2022-07-23T18:17:00;99688.88;;;25.86;40.95
27984;BME280;15317;50.360;8.726;2022-07-23T18:21:03;99697.13;;;25.81;41.21
27984;BME280;15317;50.360;8.726;2022-07-23T18:25:08;99696.63;;;25.67;41.12
27984;BME280;15317;50.360;8.726;2022-07-23T18:29:12;99691.75;;;25.58;41.52
27984;BME280;15317;50.360;8.726;2022-07-23T18:33:14;99691.47;;;25.42;43.09
27984;BME280;15317;50.360;8.726;2022-07-23T18:37:16;99693.72;;;25.29;43.19
27984;BME280;15317;50.360;8.726;2022-07-23T18:41:20;99703.56;;;25.19;43.85
27984;BME280;15317;50.360;8.726;2022-07-23T18:45:23;99701.59;;;25.03;43.42
27984;BME280;15317;50.360;8.726;2022-07-23T18:49:26;99712.88;;;24.97;44.40
27984;BME280;15317;50.360;8.726;2022-07-23T18:53:28;99709.13;;;24.79;44.82
27984;BME280;15317;50.360;8.726;2022-07-23T18:57:30;99707.16;;;24.63;45.90
27984;BME280;15317;50.360;8.726;2022-07-23T19:01:33;99717.44;;;24.51;46.08
27984;BME280;15317;50.360;8.726;2022-07-23T19:05:35;99716.38;;;24.40;46.55
27984;BME280;15317;50.360;8.726;2022-07-23T19:09:37;99713.59;;;24.17;46.96
27984;BME280;15317;50.360;8.726;2022-07-23T19:13:39;99721.94;;;24.06;47.24
27984;BME280;15317;50.360;8.726;2022-07-23T19:17:43;99717.72;;;23.91;48.41
27984;BME280;15317;50.360;8.726;2022-07-23T19:21:45;99720.84;;;23.72;48.85
27984;BME280;15317;50.360;8.726;2022-07-23T19:25:47;99730.09;;;23.54;49.97
27984;BME280;15317;50.360;8.726;2022-07-23T19:29:49;99734.59;;;23.37;50.87
27984;BME280;15317;50.360;8.726;2022-07-23T19:33:52;99744.53;;;23.14;51.67
27984;BME280;15317;50.360;8.726;2022-07-23T19:37:55;99745.66;;;22.95;52.33
27984;BME280;15317;50.360;8.726;2022-07-23T19:41:58;99749.53;;;22.76;53.29
27984;BME280;15317;50.360;8.726;2022-07-23T19:46:00;99757.81;;;22.58;54.15
27984;BME280;15317;50.360;8.726;2022-07-23T19:50:04;99761.66;;;22.38;54.50
27984;BME280;15317;50.360;8.726;2022-07-23T19:54:06;99769.03;;;22.26;55.19
27984;BME280;15317;50.360;8.726;2022-07-23T19:58:08;99774.06;;;22.11;55.74
27984;BME280;15317;50.360;8.726;2022-07-23T20:02:10;99789.28;;;22.02;55.94
27984;BME280;15317;50.360;8.726;2022-07-23T20:06:14;99780.84;;;21.90;56.53
27984;BME280;15317;50.360;8.726;2022-07-23T20:10:16;99780.28;;;21.82;57.15
27984;BME280;15317;50.360;8.726;2022-07-23T20:14:18;99784.84;;;21.70;57.27
27984;BME280;15317;50.360;8.726;2022-07-23T20:18:20;99799.28;;;21.72;56.97
27984;BME280;15317;50.360;8.726;2022-07-23T20:22:24;99799.28;;;21.72;57.03
27984;BME280;15317;50.360;8.726;2022-07-23T20:26:26;99806.06;;;21.76;56.45
27984;BME280;15317;50.360;8.726;2022-07-23T20:30:28;99793.47;;;21.80;56.41
27984;BME280;15317;50.360;8.726;2022-07-23T20:34:30;99790.44;;;21.88;56.09
27984;BME280;15317;50.360;8.726;2022-07-23T20:38:34;99797.56;;;22.02;55.57
27984;BME280;15317;50.360;8.726;2022-07-23T20:42:36;99798.81;;;22.06;55.92
27984;BME280;15317;50.360;8.726;2022-07-23T20:46:39;99792.69;;;22.22;55.58
27984;BME280;15317;50.360;8.726;2022-07-23T20:50:41;99811.59;;;22.25;55.74
27984;BME280;15317;50.360;8.726;2022-07-23T20:54:46;99815.75;;;22.16;56.00
27984;BME280;15317;50.360;8.726;2022-07-23T20:58:48;99831.50;;;22.16;56.28
27984;BME280;15317;50.360;8.726;2022-07-23T21:02:51;99826.81;;;22.16;56.32
27984;BME280;15317;50.360;8.726;2022-07-23T21:06:53;99833.25;;;22.10;56.60
27984;BME280;15317;50.360;8.726;2022-07-23T21:10:56;99838.44;;;22.00;57.20
27984;BME280;15317;50.360;8.726;2022-07-23T21:14:58;99835.06;;;21.91;57.63
27984;BME280;15317;50.360;8.726;2022-07-23T21:19:00;99840.66;;;21.85;57.65
27984;BME280;15317;50.360;8.726;2022-07-23T21:23:02;99841.53;;;21.79;58.23
27984;BME280;15317;50.360;8.726;2022-07-23T21:27:06;99840.75;;;21.72;58.23